createdAt,value
2022-10-28T00:00:03.932Z,26.67
2022-10-28T00:02:53.681Z,36.25
2022-10-28T00:05:41.647Z,29.52
2022-10-28T00:08:30.101Z,27.75
2022-10-28T00:11:22.480Z,25.55
2022-10-28T00:14:11.143Z,25.77
2022-10-28T00:16:58.758Z,28.70
2022-10-28T00:19:50.400Z,30.95
2022-10-28T00:22:37.829Z,27.55
2022-10-28T00:25:25.727Z,35.42
2022-10-28T00:28:13.030Z,26.63
2022-10-28T00:31:06.720Z,22.75
2022-10-28T00:33:55.224Z,24.58
2022-10-28T00:36:46.349Z,29.80
2022-10-28T00:39:34.178Z,27.17
2022-10-28T00:42:23.738Z,30.08
2022-10-28T00:45:12.341Z,27.33
2022-10-28T00:48:02.524Z,27.70
2022-10-28T00:50:52.893Z,23.75
2022-10-28T00:53:43.172Z,28.17
2022-10-28T00:56:34.926Z,27.38
2022-10-28T00:59:28.153Z,29.20
2022-10-28T01:02:15.990Z,27.52
2022-10-28T01:05:04.476Z,32.03
2022-10-28T01:07:55.227Z,29.40
2022-10-28T01:11:19.021Z,32.50
2022-10-28T01:14:24.648Z,29.80
2022-10-28T01:17:48.015Z,26.38
2022-10-28T01:21:27.613Z,26.50
2022-10-28T01:24:31.795Z,25.40
2022-10-28T01:28:13.543Z,26.67
2022-10-28T01:31:20.699Z,29.65
2022-10-28T01:34:19.050Z,24.67
2022-10-28T01:37:15.576Z,25.70
2022-10-28T01:40:12.399Z,29.10
2022-10-28T01:43:12.225Z,27.33
2022-10-28T01:46:05.966Z,28.45
2022-10-28T01:48:58.806Z,32.58
2022-10-28T01:51:49.819Z,29.27
2022-10-28T01:54:40.597Z,32.13
2022-10-28T01:57:32.294Z,31.38
2022-10-28T02:00:20.459Z,30.42
2022-10-28T02:03:10.124Z,31.15
2022-10-28T02:06:02.592Z,25.52
2022-10-28T02:09:07.595Z,31.30
2022-10-28T02:12:20.012Z,29.00
2022-10-28T02:15:40.974Z,26.63
2022-10-28T02:18:44.450Z,27.40
2022-10-28T02:21:48.927Z,29.42
2022-10-28T02:24:48.707Z,26.47
2022-10-28T02:27:44.643Z,31.00
2022-10-28T02:30:38.469Z,29.23
2022-10-28T02:33:31.411Z,28.92
2022-10-28T02:36:20.641Z,27.75
2022-10-28T02:39:12.367Z,21.42
2022-10-28T02:42:08.195Z,25.20
2022-10-28T02:45:02.732Z,23.02
2022-10-28T02:47:55.752Z,25.73
2022-10-28T02:50:48.545Z,27.77
2022-10-28T02:53:51.713Z,25.63
2022-10-28T02:56:49.820Z,26.58
2022-10-28T02:59:37.625Z,21.67
2022-10-28T03:02:25.667Z,23.92
2022-10-28T03:05:14.380Z,25.08
2022-10-28T03:08:01.727Z,25.02
2022-10-28T03:10:49.225Z,22.25
2022-10-28T03:13:37.819Z,23.23
2022-10-28T03:16:26.722Z,20.05
2022-10-28T03:19:14.324Z,24.08
2022-10-28T03:22:01.856Z,22.67
2022-10-28T03:24:49.182Z,21.35
2022-10-28T03:27:36.738Z,23.17
2022-10-28T03:30:25.705Z,23.73
2022-10-28T03:33:13.448Z,22.73
2022-10-28T03:36:01.011Z,21.27
2022-10-28T03:38:48.328Z,23.65
2022-10-28T03:41:35.739Z,23.00
2022-10-28T03:44:23.028Z,19.50
2022-10-28T03:47:11.719Z,23.63
2022-10-28T03:49:59.293Z,24.52
2022-10-28T03:52:46.635Z,20.90
2022-10-28T03:55:34.175Z,23.83
2022-10-28T03:58:21.733Z,21.42
2022-10-28T04:01:09.912Z,22.88
2022-10-28T04:04:00.773Z,21.50
2022-10-28T04:06:48.171Z,20.90
2022-10-28T04:09:35.640Z,22.42
2022-10-28T04:12:23.154Z,22.88
2022-10-28T04:15:11.097Z,20.90
2022-10-28T04:17:58.791Z,19.75
2022-10-28T04:20:48.840Z,17.70
2022-10-28T04:23:36.358Z,21.50
2022-10-28T04:26:24.045Z,20.08
2022-10-28T04:29:11.648Z,20.02
2022-10-28T04:31:59.568Z,19.17
2022-10-28T04:34:46.823Z,19.65
2022-10-28T04:37:35.888Z,22.20
2022-10-28T04:40:23.617Z,24.25
2022-10-28T04:43:14.411Z,19.90
2022-10-28T04:46:06.128Z,23.52
2022-10-28T04:48:53.639Z,21.85
2022-10-28T04:51:41.079Z,23.52
2022-10-28T04:54:29.799Z,22.25
2022-10-28T04:57:17.329Z,22.17
2022-10-28T05:00:06.026Z,21.13
2022-10-28T05:02:54.254Z,23.95
2022-10-28T05:05:42.098Z,21.23
2022-10-28T05:08:30.153Z,25.35
2022-10-28T05:11:18.851Z,17.88
2022-10-28T05:14:06.713Z,21.20
2022-10-28T05:16:53.986Z,19.88
2022-10-28T05:19:42.312Z,21.27
2022-10-28T05:22:29.730Z,24.73
2022-10-28T05:25:17.865Z,24.67
2022-10-28T05:28:07.118Z,22.73
2022-10-28T05:30:54.857Z,21.60
2022-10-28T05:33:42.138Z,22.48
2022-10-28T05:36:29.612Z,25.63
2022-10-28T05:39:17.011Z,21.42
2022-10-28T05:42:07.972Z,18.48
2022-10-28T05:44:56.794Z,25.58
2022-10-28T05:47:45.474Z,21.67
2022-10-28T05:50:32.833Z,23.52
2022-10-28T05:53:20.267Z,23.90
2022-10-28T05:56:08.390Z,26.30
2022-10-28T05:58:55.782Z,22.58
2022-10-28T06:01:44.577Z,22.85
2022-10-28T06:04:33.454Z,23.58
2022-10-28T06:07:20.967Z,25.20
2022-10-28T06:10:11.700Z,24.55
2022-10-28T06:12:59.149Z,24.58
2022-10-28T06:15:51.903Z,25.63
2022-10-28T06:18:40.709Z,26.27
2022-10-28T06:21:28.546Z,23.38
2022-10-28T06:24:16.012Z,27.33
2022-10-28T06:27:03.900Z,22.88
2022-10-28T06:29:51.203Z,22.30
2022-10-28T06:32:39.059Z,25.50
2022-10-28T06:35:28.118Z,24.15
2022-10-28T06:38:15.702Z,24.15
2022-10-28T06:41:03.805Z,24.30
2022-10-28T06:43:51.407Z,22.65
2022-10-28T06:46:40.423Z,23.10
2022-10-28T06:49:28.803Z,23.27
2022-10-28T06:52:17.534Z,24.08
2022-10-28T06:55:05.673Z,26.92
2022-10-28T06:57:53.371Z,28.23
2022-10-28T07:00:43.841Z,23.20
2022-10-28T07:03:33.170Z,20.70
2022-10-28T07:06:20.515Z,19.55
2022-10-28T07:09:12.136Z,22.45
2022-10-28T07:12:04.930Z,19.52
2022-10-28T07:14:53.253Z,19.27
2022-10-28T07:17:41.958Z,21.80
2022-10-28T07:20:33.073Z,16.67
2022-10-28T07:23:21.126Z,21.05
2022-10-28T07:26:10.049Z,26.15
2022-10-28T07:28:58.049Z,20.25
2022-10-28T07:31:45.858Z,20.02
2022-10-28T07:34:35.631Z,18.70
2022-10-28T07:37:23.452Z,20.75
2022-10-28T07:40:11.879Z,21.55
2022-10-28T07:43:01.705Z,19.05
2022-10-28T07:45:49.438Z,21.38
2022-10-28T07:48:38.369Z,18.23
2022-10-28T07:51:26.189Z,13.55
2022-10-28T07:54:13.882Z,15.65
2022-10-28T07:57:01.691Z,15.70
2022-10-28T07:59:50.576Z,17.15
2022-10-28T08:02:38.695Z,14.98
2022-10-28T08:05:26.079Z,12.98
2022-10-28T08:08:13.716Z,12.40
2022-10-28T08:11:09.381Z,15.75
2022-10-28T08:14:00.260Z,13.38
2022-10-28T08:16:49.124Z,12.50
2022-10-28T08:19:36.755Z,14.55
2022-10-28T08:22:24.773Z,12.43
2022-10-28T08:25:15.419Z,14.15
2022-10-28T08:28:03.160Z,11.30
2022-10-28T08:31:04.090Z,14.90
2022-10-28T08:33:57.019Z,17.15
2022-10-28T08:36:44.673Z,13.32
2022-10-28T08:39:32.052Z,15.13
2022-10-28T08:42:37.379Z,11.38
2022-10-28T08:45:37.865Z,9.23
2022-10-28T08:48:32.781Z,7.38
2022-10-28T08:54:19.934Z,10.95
2022-10-28T08:57:20.044Z,9.48
2022-10-28T09:00:18.230Z,7.38
2022-10-28T09:03:20.633Z,7.63
2022-10-28T09:06:10.436Z,5.63
2022-10-28T09:08:59.253Z,6.65
2022-10-28T09:12:02.848Z,5.63
2022-10-28T09:15:14.971Z,7.88
2022-10-28T09:18:15.834Z,7.07
2022-10-28T09:21:14.529Z,11.27
2022-10-28T09:24:17.830Z,6.55
2022-10-28T09:27:17.353Z,5.65
2022-10-28T09:30:32.242Z,7.03
2022-10-28T09:33:56.659Z,5.60
2022-10-28T09:36:48.911Z,6.85
2022-10-28T09:39:44.450Z,6.90
2022-10-28T09:42:41.853Z,5.85
2022-10-28T09:45:33.142Z,4.47
2022-10-28T09:48:25.258Z,4.97
2022-10-28T09:51:30.350Z,5.78
2022-10-28T09:54:18.684Z,6.15
2022-10-28T09:57:08.101Z,6.43
2022-10-28T09:59:55.881Z,5.28
2022-10-28T10:02:43.775Z,4.82
2022-10-28T10:05:32.533Z,4.13
2022-10-28T10:08:22.776Z,5.07
2022-10-28T10:11:25.659Z,3.10
2022-10-28T10:14:20.631Z,3.65
2022-10-28T10:17:15.833Z,3.92
2022-10-28T10:20:09.118Z,3.70
2022-10-28T10:22:57.313Z,3.13
2022-10-28T10:25:46.973Z,4.53
2022-10-28T10:28:38.417Z,3.97
2022-10-28T10:31:31.380Z,7.38
2022-10-28T10:34:26.852Z,4.15
2022-10-28T10:37:22.310Z,5.13
2022-10-28T10:40:22.794Z,4.88
2022-10-28T10:43:24.597Z,5.55
2022-10-28T10:46:18.060Z,7.15
2022-10-28T10:49:16.119Z,5.43
2022-10-28T10:52:08.232Z,5.55
2022-10-28T10:55:03.708Z,5.22
2022-10-28T10:57:53.183Z,4.43
2022-10-28T11:00:50.146Z,5.43
2022-10-28T11:03:41.457Z,5.32
2022-10-28T11:06:33.593Z,5.15
2022-10-28T11:09:30.094Z,7.32
2022-10-28T11:12:26.553Z,7.00
2022-10-28T11:15:26.061Z,8.27
2022-10-28T11:18:21.109Z,4.82
2022-10-28T11:24:37.356Z,7.13
2022-10-28T11:27:40.022Z,7.10
2022-10-28T11:30:40.070Z,5.03
2022-10-28T11:33:39.139Z,4.07
2022-10-28T11:36:36.444Z,7.22
2022-10-28T11:39:34.959Z,5.97
2022-10-28T11:42:33.373Z,8.60
2022-10-28T11:45:32.235Z,5.25
2022-10-28T11:48:40.701Z,6.93
2022-10-28T11:51:43.298Z,4.63
2022-10-28T11:54:53.775Z,6.20
2022-10-28T11:57:59.984Z,3.33
2022-10-28T12:01:10.712Z,9.70
2022-10-28T12:04:13.776Z,4.03
2022-10-28T12:08:04.088Z,9.10
2022-10-28T12:11:12.584Z,6.25
2022-10-28T12:14:11.773Z,5.13
2022-10-28T12:17:06.689Z,5.15
2022-10-28T12:20:00.990Z,3.15
2022-10-28T12:22:52.987Z,4.75
2022-10-28T12:25:45.108Z,5.88
2022-10-28T12:28:43.330Z,3.95
2022-10-28T12:31:35.859Z,4.03
2022-10-28T12:34:31.239Z,4.80
2022-10-28T12:37:23.199Z,5.22
2022-10-28T12:40:20.839Z,6.10
2022-10-28T12:43:16.883Z,4.53
2022-10-28T12:46:07.316Z,3.70
2022-10-28T12:48:59.846Z,6.03
2022-10-28T12:51:47.960Z,4.38
2022-10-28T12:54:52.775Z,5.45
2022-10-28T13:00:36.540Z,6.80
2022-10-28T13:03:25.378Z,4.93
2022-10-28T13:06:47.073Z,5.88
2022-10-28T13:09:54.303Z,6.80
2022-10-28T13:13:18.163Z,4.32
2022-10-28T13:16:30.780Z,4.10
2022-10-28T13:19:43.088Z,6.78
2022-10-28T13:22:57.811Z,3.45
2022-10-28T13:26:07.344Z,8.70
2022-10-28T13:28:58.723Z,8.00
2022-10-28T13:31:47.878Z,6.57
2022-10-28T13:34:41.931Z,8.65
2022-10-28T13:37:36.912Z,5.60
2022-10-28T13:41:10.540Z,3.42
2022-10-28T13:44:15.271Z,6.55
2022-10-28T13:47:31.750Z,2.95
2022-10-28T13:50:44.527Z,5.97
2022-10-28T13:53:41.732Z,4.53
2022-10-28T13:56:49.216Z,4.30
2022-10-28T13:59:54.699Z,4.60
2022-10-28T14:02:47.828Z,6.75
2022-10-28T14:06:00.803Z,4.90
2022-10-28T14:08:48.310Z,4.60
2022-10-28T14:11:35.722Z,10.98
2022-10-28T14:14:23.020Z,6.57
2022-10-28T14:17:23.184Z,7.45
2022-10-28T14:20:34.916Z,5.43
2022-10-28T14:24:11.598Z,6.90
2022-10-28T14:27:42.804Z,6.68
2022-10-28T14:30:30.326Z,3.88
2022-10-28T14:33:23.344Z,6.18
2022-10-28T14:36:30.699Z,5.40
2022-10-28T14:39:37.529Z,5.10
2022-10-28T14:42:43.382Z,5.40
2022-10-28T14:45:42.015Z,4.63
2022-10-28T14:48:49.754Z,5.93
2022-10-28T14:51:42.488Z,6.97
2022-10-28T14:54:40.946Z,3.80
2022-10-28T14:57:33.689Z,11.90
2022-10-28T15:00:26.013Z,6.45
2022-10-28T15:03:14.262Z,10.55
2022-10-28T15:06:18.747Z,5.45
2022-10-28T15:09:18.317Z,9.93
2022-10-28T15:12:10.338Z,6.30
2022-10-28T15:14:58.859Z,5.05
2022-10-28T15:17:46.336Z,10.10
2022-10-28T15:20:36.535Z,10.18
2022-10-28T15:23:25.343Z,6.35
2022-10-28T15:26:14.660Z,7.70
2022-10-28T15:29:04.060Z,14.85
2022-10-28T15:32:08.679Z,8.43
2022-10-28T15:34:59.521Z,9.18
2022-10-28T15:37:47.238Z,7.43
2022-10-28T15:40:37.936Z,7.90
2022-10-28T15:43:28.484Z,11.52
2022-10-28T15:46:18.637Z,15.48
2022-10-28T15:49:06.105Z,8.63
2022-10-28T15:52:34.291Z,13.00
2022-10-28T15:56:06.599Z,71.32
2022-10-28T15:59:10.206Z,50.90
2022-10-28T16:04:47.246Z,31.27
2022-10-28T16:07:34.707Z,33.00
2022-10-28T16:10:22.098Z,25.55
2022-10-28T16:13:18.453Z,32.63
2022-10-28T16:16:09.495Z,18.77
2022-10-28T16:19:07.826Z,14.77
2022-10-28T16:21:55.623Z,20.55
2022-10-28T16:24:43.227Z,16.30
2022-10-28T16:27:33.559Z,18.10
2022-10-28T16:33:13.494Z,14.50
2022-10-28T16:36:03.867Z,15.80
2022-10-28T16:38:51.596Z,14.25
2022-10-28T16:41:40.754Z,13.90
2022-10-28T16:44:29.731Z,11.82
2022-10-28T16:47:19.328Z,16.50
2022-10-28T16:50:07.709Z,12.77
2022-10-28T16:52:56.679Z,12.93
2022-10-28T16:55:44.099Z,10.88
2022-10-28T16:58:32.311Z,10.55
2022-10-28T17:01:24.152Z,13.50
2022-10-28T17:04:11.745Z,11.55
2022-10-28T17:06:59.039Z,9.73
2022-10-28T17:09:47.736Z,12.00
2022-10-28T17:12:35.313Z,12.23
2022-10-28T17:15:22.876Z,15.85
2022-10-28T17:18:12.318Z,17.13
2022-10-28T17:21:03.526Z,18.25
2022-10-28T17:23:51.273Z,15.35
2022-10-28T17:26:40.226Z,11.90
2022-10-28T17:29:29.854Z,12.00
2022-10-28T17:32:17.260Z,13.45
2022-10-28T17:35:05.072Z,12.50
2022-10-28T17:37:53.143Z,10.32
2022-10-28T17:40:40.629Z,12.90
2022-10-28T17:43:30.011Z,15.25
2022-10-28T17:46:17.384Z,15.40
2022-10-28T17:49:08.722Z,14.68
2022-10-28T17:51:56.250Z,12.82
2022-10-28T17:54:43.625Z,11.23
2022-10-28T17:57:37.602Z,13.35
2022-10-28T18:00:36.938Z,12.07
2022-10-28T18:03:24.157Z,13.80
2022-10-28T18:06:15.729Z,11.95
2022-10-28T18:09:03.792Z,13.25
2022-10-28T18:11:52.942Z,12.45
2022-10-28T18:14:40.999Z,16.25
2022-10-28T18:17:30.099Z,10.27
2022-10-28T18:20:17.714Z,11.68
2022-10-28T18:23:05.156Z,13.35
2022-10-28T18:26:00.133Z,12.57
2022-10-28T18:31:36.225Z,13.25
2022-10-28T18:34:25.429Z,14.85
2022-10-28T18:37:13.112Z,13.13
2022-10-28T18:40:00.933Z,16.23
2022-10-28T18:42:49.090Z,13.27
2022-10-28T18:45:38.091Z,15.50
2022-10-28T18:48:28.489Z,14.43
2022-10-28T18:51:18.072Z,14.65
2022-10-28T18:54:06.197Z,12.63
2022-10-28T18:56:57.432Z,13.50
2022-10-28T19:00:16.966Z,13.20
2022-10-28T19:05:42.559Z,12.95
2022-10-28T19:08:31.341Z,11.65
2022-10-28T19:11:19.391Z,11.25
2022-10-28T19:14:08.543Z,10.77
2022-10-28T19:16:56.342Z,11.73
2022-10-28T19:19:43.692Z,9.63
2022-10-28T19:22:31.224Z,13.45
2022-10-28T19:25:22.954Z,12.65
2022-10-28T19:28:10.360Z,14.18
2022-10-28T19:31:03.118Z,11.55
2022-10-28T19:33:54.088Z,13.55
2022-10-28T19:36:42.131Z,14.77
2022-10-28T19:39:29.767Z,13.00
2022-10-28T19:42:21.579Z,12.13
2022-10-28T19:45:11.058Z,10.90
2022-10-28T19:48:02.683Z,14.82
2022-10-28T19:50:51.056Z,16.35
2022-10-28T19:53:38.661Z,12.50
2022-10-28T19:56:26.922Z,10.77
2022-10-28T19:59:16.983Z,14.65
2022-10-28T20:02:04.781Z,17.10
2022-10-28T20:04:57.181Z,12.63
2022-10-28T20:07:44.835Z,13.27
2022-10-28T20:10:33.440Z,13.18
2022-10-28T20:13:23.294Z,13.57
2022-10-28T20:16:15.705Z,15.23
2022-10-28T20:19:03.504Z,13.70
2022-10-28T20:21:51.407Z,12.57
2022-10-28T20:24:42.241Z,16.30
2022-10-28T20:27:29.823Z,16.23
2022-10-28T20:30:17.910Z,14.93
2022-10-28T20:33:08.471Z,15.95
2022-10-28T20:35:56.869Z,12.35
2022-10-28T20:38:44.353Z,17.65
2022-10-28T20:41:34.706Z,16.90
2022-10-28T20:44:22.500Z,15.65
2022-10-28T20:47:10.036Z,15.68
2022-10-28T20:49:59.321Z,15.85
2022-10-28T20:52:47.107Z,20.05
2022-10-28T20:55:34.708Z,16.27
2022-10-28T20:58:28.787Z,16.70
2022-10-28T21:01:19.365Z,16.30
2022-10-28T21:04:11.918Z,15.90
2022-10-28T21:07:00.892Z,16.60
2022-10-28T21:09:49.624Z,15.88
2022-10-28T21:12:37.498Z,16.02
2022-10-28T21:15:25.098Z,14.93
2022-10-28T21:18:13.068Z,14.02
2022-10-28T21:21:01.428Z,12.73
2022-10-28T21:23:50.336Z,18.02
2022-10-28T21:26:38.151Z,16.70
2022-10-28T21:29:25.736Z,17.08
2022-10-28T21:32:13.216Z,13.57
2022-10-28T21:35:01.120Z,19.50
2022-10-28T21:37:48.823Z,20.10
2022-10-28T21:40:37.683Z,13.02
2022-10-28T21:43:29.926Z,15.35
2022-10-28T21:46:17.868Z,15.98
2022-10-28T21:49:05.592Z,13.30
2022-10-28T21:51:53.119Z,14.07
2022-10-28T21:54:40.654Z,12.93
2022-10-28T21:57:35.470Z,15.75
2022-10-28T22:00:23.392Z,16.75
2022-10-28T22:03:11.947Z,16.58
2022-10-28T22:05:59.370Z,17.58
2022-10-28T22:08:47.009Z,14.35
2022-10-28T22:11:34.528Z,16.73
2022-10-28T22:14:23.314Z,16.02
2022-10-28T22:17:11.026Z,14.68
2022-10-28T22:19:58.637Z,13.25
2022-10-28T22:22:46.185Z,12.57
2022-10-28T22:25:33.680Z,13.52
2022-10-28T22:28:21.264Z,14.30
2022-10-28T22:31:13.315Z,13.50
2022-10-28T22:34:01.569Z,12.73
2022-10-28T22:36:49.996Z,15.70
2022-10-28T22:39:37.588Z,14.38
2022-10-28T22:42:27.566Z,13.23
2022-10-28T22:45:15.615Z,17.10
2022-10-28T22:48:04.956Z,13.43
2022-10-28T22:50:52.778Z,18.02
2022-10-28T22:53:41.548Z,17.02
2022-10-28T22:56:29.140Z,18.83
2022-10-28T22:59:16.670Z,12.70
2022-10-28T23:02:04.343Z,14.52
2022-10-28T23:04:53.657Z,11.63
2022-10-28T23:07:41.253Z,12.95
2022-10-28T23:10:30.120Z,17.48
2022-10-28T23:13:17.404Z,14.52
2022-10-28T23:16:06.352Z,10.60
2022-10-28T23:18:56.123Z,12.25
2022-10-28T23:21:44.990Z,14.25
2022-10-28T23:24:32.851Z,11.88
2022-10-28T23:27:20.090Z,14.18
2022-10-28T23:30:10.350Z,13.23
2022-10-28T23:32:59.212Z,12.10
2022-10-28T23:35:54.165Z,12.65
2022-10-28T23:41:31.161Z,12.77
2022-10-28T23:44:18.817Z,12.13
2022-10-28T23:47:06.158Z,14.98
2022-10-28T23:49:54.102Z,14.73
2022-10-28T23:52:41.688Z,12.32
2022-10-28T23:55:30.663Z,12.00
2022-10-28T23:58:20.817Z,13.15
